Česky Dansk Deutsch English Español Suomi Français Magyar Italiano Nederlands norsk Polski Português svenska Türkçe

 

Het Weer

Grosseto (Italië)

09:55, 22 augustus 2016 (GMT)

NWNNE
WE
SWSSE
Home            
Grosseto Monte Argentario M. Calamita Radicofani Volterra Viterbo Civitavecchia Arezzo Firenze / Peretola Pisa / S. Giusto Vigna Di Valle Perugia Bastia Roma Fiumicino Porretta Pass Roma / Urbe Rieti Frontone Monte Terminillo Guidonia Monte Cimone Roma / Ciampino Solenzara

Om een weerknop op uw website of weblog te plaatsen, copieer onderstaande code en plak die in uw pagina. In het eerste vakje staat HTML-code, in het tweede vakje UBB-code.


Add to Google

Details

Wind speed:4 bf, 15 kn, 7.7 m/s, 17.3 miles/h, 27.8 km/h
Wind direction:NNE, 030°
Visibility:Greater than 10000 m, 10 km, 32800 ft, 6.2 miles
Clouds:CAVOC
Temperature:31°C, 88°F
Gefühlte Temperatur:31°C, 87°F
Dew-point:15°C, 59°F
Atmospheric pressure:1018 hPa, 763.6 mmHg, 30.06 inHg, 1.005 atm
Relative humidity:38.0 %
METAR:LIRS 220955Z 03015KT CAVOK 31/15 Q1018

Snelkoppelingen

Actuele weersinformatie van de hele wereld. Voeg locaties toe met het plus (+) symbool. Deze snelkoppelingen kunnen worden toegevoegd aan Google.

Lid van de Technetium groep

website free tracking
StatCounter NetStat W3C Validator

01-12-2022 06:38:17
astro.technetium.be money.technetium.be phote.technetium.be tafeltennistafel.technetium.be www.ligfiets.net